Baltimore, Maryland
Traffic Map
Current Weather Conditions
Baltimore, Maryland
Scattered Clouds
Scattered Clouds
21°
Feels Like: 8°
Wind Chill: Ceiling: Unl
Heat Index: 21° Visibility: 10mi
Dew Point: Wind: 14mph
Humidity: 50% Direction: 300° (WNW)
Pressure: 30.08in Gusts: 0mph
Raw Report DataKBWI 131054Z 30012KT 10SM SCT034 SCT070 M06/M15 A3008 RMK AO2 SLP188 T10611150
Traffic Incident Summary
Active as of:
Severity:
Category:
InformationThere was an issue retrieving the traffic information for this location. Please try a different location or try again shortly.
Advertisements
Track Severe Weather on mobile